createdAt,value
2017-08-28T00:03:47.085Z,18.40
2017-08-28T00:08:50.289Z,18.30
2017-08-28T00:13:53.490Z,18.30
2017-08-28T00:18:56.699Z,18.30
2017-08-28T00:23:59.869Z,18.30
2017-08-28T00:29:03.084Z,18.10
2017-08-28T00:34:06.269Z,18.00
2017-08-28T00:39:09.457Z,18.00
2017-08-28T00:44:12.656Z,18.00
2017-08-28T00:49:15.840Z,17.90
2017-08-28T00:54:19.029Z,17.90
2017-08-28T00:59:22.244Z,17.80
2017-08-28T01:04:25.456Z,17.90
2017-08-28T01:09:28.643Z,17.80
2017-08-28T01:14:31.861Z,17.80
2017-08-28T01:19:35.055Z,17.70
2017-08-28T01:24:38.261Z,17.70
2017-08-28T01:29:41.454Z,17.60
2017-08-28T01:34:44.636Z,17.50
2017-08-28T01:39:47.823Z,17.40
2017-08-28T01:44:51.036Z,17.40
2017-08-28T01:49:54.220Z,17.40
2017-08-28T01:54:57.570Z,17.30
2017-08-28T02:00:00.764Z,17.30
2017-08-28T02:05:03.950Z,17.30
2017-08-28T02:10:07.151Z,17.30
2017-08-28T02:15:10.349Z,17.20
2017-08-28T02:20:13.542Z,17.10
2017-08-28T02:25:16.752Z,16.70
2017-08-28T02:30:19.964Z,16.80
2017-08-28T02:35:23.147Z,16.80
2017-08-28T02:40:26.397Z,16.70
2017-08-28T02:45:29.826Z,16.60
2017-08-28T02:50:33.022Z,16.70
2017-08-28T02:55:36.222Z,16.60
2017-08-28T03:00:39.516Z,16.60
2017-08-28T03:05:42.688Z,16.60
2017-08-28T03:10:45.865Z,16.50
2017-08-28T03:15:49.055Z,16.50
2017-08-28T03:20:52.233Z,16.60
2017-08-28T03:25:55.410Z,16.70
2017-08-28T03:30:58.610Z,16.80
2017-08-28T03:36:01.802Z,16.80
2017-08-28T03:41:04.974Z,16.80
2017-08-28T03:46:08.233Z,16.80
2017-08-28T03:51:11.393Z,16.80
2017-08-28T03:56:14.577Z,16.80
2017-08-28T04:01:17.792Z,16.70
2017-08-28T04:06:21.153Z,16.60
2017-08-28T04:11:24.375Z,16.50
2017-08-28T04:16:27.558Z,16.40
2017-08-28T04:21:30.796Z,16.30
2017-08-28T04:26:33.978Z,16.20
2017-08-28T04:31:37.501Z,16.10
2017-08-28T04:36:40.698Z,16.10
2017-08-28T04:41:43.866Z,16.20
2017-08-28T04:46:47.063Z,16.20
2017-08-28T04:51:50.250Z,16.10
2017-08-28T04:56:53.498Z,16.00
2017-08-28T05:01:56.725Z,16.10
2017-08-28T05:06:59.921Z,16.10
2017-08-28T05:12:03.130Z,16.20
2017-08-28T05:17:06.355Z,16.20
2017-08-28T05:22:09.670Z,16.20
2017-08-28T05:27:12.878Z,16.40
2017-08-28T05:32:16.055Z,16.50
2017-08-28T05:37:19.270Z,16.60
2017-08-28T05:42:22.454Z,16.70
2017-08-28T05:47:25.652Z,16.70
2017-08-28T05:52:28.851Z,16.70
2017-08-28T05:57:32.010Z,16.70
2017-08-28T06:02:35.199Z,16.70
2017-08-28T06:07:38.438Z,17.30
2017-08-28T06:12:41.637Z,17.80
2017-08-28T06:17:44.809Z,18.40
2017-08-28T06:22:48.014Z,19.00
2017-08-28T06:27:51.212Z,19.20
2017-08-28T06:32:54.408Z,19.50
2017-08-28T06:37:57.619Z,19.80
2017-08-28T06:43:00.789Z,20.20
2017-08-28T06:48:03.959Z,20.10
2017-08-28T06:53:07.141Z,20.30
2017-08-28T06:58:10.333Z,20.60
2017-08-28T07:03:13.548Z,20.80
2017-08-28T07:08:16.762Z,21.00
2017-08-28T07:13:19.956Z,20.70
2017-08-28T07:18:23.166Z,21.00
2017-08-28T07:23:26.349Z,21.70
2017-08-28T07:28:29.558Z,21.40
2017-08-28T07:33:32.741Z,21.50
2017-08-28T07:38:35.953Z,21.40
2017-08-28T07:43:39.148Z,21.40
2017-08-28T07:48:42.411Z,21.50
2017-08-28T07:53:45.586Z,22.00
2017-08-28T07:58:48.789Z,22.10
2017-08-28T08:03:51.985Z,21.90
2017-08-28T08:08:55.271Z,22.10
2017-08-28T08:13:58.460Z,22.30
2017-08-28T08:19:01.662Z,21.80
2017-08-28T08:24:04.857Z,21.90
2017-08-28T08:29:08.037Z,22.30
2017-08-28T08:34:16.823Z,22.70
2017-08-28T08:39:24.680Z,22.50
2017-08-28T08:44:27.842Z,22.40
2017-08-28T08:49:31.023Z,22.60
2017-08-28T08:54:34.282Z,22.90
2017-08-28T08:59:37.488Z,22.80
2017-08-28T09:04:40.679Z,23.10
2017-08-28T09:09:43.865Z,23.30
2017-08-28T09:14:47.046Z,23.10
2017-08-28T09:19:50.261Z,23.50
2017-08-28T09:24:53.450Z,23.50
2017-08-28T09:29:56.655Z,23.90
2017-08-28T09:34:59.843Z,23.50
2017-08-28T09:40:03.050Z,23.50
2017-08-28T09:45:06.217Z,23.50
2017-08-28T09:50:09.414Z,23.50
2017-08-28T09:55:12.595Z,23.90
2017-08-28T10:00:15.797Z,23.70
2017-08-28T10:05:19.002Z,24.00
2017-08-28T10:10:22.240Z,24.00
2017-08-28T10:15:25.412Z,24.00
2017-08-28T10:20:28.612Z,24.20
2017-08-28T10:25:31.807Z,24.40
2017-08-28T10:30:34.993Z,24.40
2017-08-28T10:35:38.216Z,24.40
2017-08-28T10:40:41.413Z,24.50
2017-08-28T10:45:44.637Z,24.50
2017-08-28T10:50:47.830Z,24.60
2017-08-28T10:55:51.065Z,24.90
2017-08-28T11:00:55.110Z,25.10
2017-08-28T11:05:58.334Z,24.80
2017-08-28T11:11:01.525Z,24.90
2017-08-28T11:16:04.747Z,25.40
2017-08-28T11:21:07.953Z,25.50
2017-08-28T11:26:11.141Z,25.50
2017-08-28T11:31:14.330Z,25.40
2017-08-28T11:36:17.532Z,25.40
2017-08-28T11:41:20.737Z,25.60
2017-08-28T11:46:23.920Z,25.60
2017-08-28T11:51:27.129Z,25.80
2017-08-28T11:56:30.345Z,25.60
2017-08-28T12:01:33.542Z,25.80
2017-08-28T12:06:36.756Z,25.60
2017-08-28T12:11:40.023Z,25.60
2017-08-28T12:16:43.202Z,25.60
2017-08-28T12:21:46.382Z,25.70
2017-08-28T12:26:49.579Z,25.70
2017-08-28T12:31:52.869Z,25.90
2017-08-28T12:36:56.052Z,26.10
2017-08-28T12:41:59.255Z,26.10
2017-08-28T12:47:02.439Z,26.40
2017-08-28T12:52:05.654Z,26.30
2017-08-28T12:57:08.857Z,26.10
2017-08-28T13:02:12.055Z,26.00
2017-08-28T13:07:15.253Z,26.20
2017-08-28T13:12:18.481Z,26.40
2017-08-28T13:34:02.241Z,26.60
2017-08-28T13:39:05.435Z,26.40
